Veguita, New Mexico
Current Conditions -  °F | °C
As of 4:55 AM on Sunday 25 Jan 2015 (Local Time) from KE80 Reporting Station
Clear Clear  
Wind Chill: 19°   Ceiling: Unl
Heat Index: 27°   Visibility: 10mi
Dew Point: 22°   Wind: 8mph
Humidity: 79%   Direction: 350°N
Pressure: 30.26"   Gusts: NA
Location:  34.51°N, 106.77°W
Report Text: KE80 251155Z AUTO 35007KT 10SM CLR M03/M06 A3026 RMK AO2 T10261058 10009 21055
Loading
Personal Weather Stations






























Interactive Weather Map New forecast layout! Learn more

10-Day Weather Forecast

Advertisements
Track Severe Weather on mobile